Time;durP1;ratioP1;P1;durP2;ratioP2;P2;SDS_P1;SDS_P2;PMS_P1;PMS_P2;Temp;Humidity;BMP_temperature;BMP_pressure;BME280_temperature;BME280_humidity;BME280_pressure;Samples;Min_cycle;Max_cycle;Signal;HPM_P1;HPM_P2
2023/11/27 00:02:15;;;;;;;16.35;9.95;;;0.50;99.90;;;;;;6276416;22;20028;-81
2023/11/27 00:05:02;;;;;;;20.02;10.63;;;0.50;99.90;;;;;;6253508;22;20020;-81
2023/11/27 00:07:52;;;;;;;15.57;10.00;;;0.50;99.90;;;;;;6275404;22;20024;-81
2023/11/27 00:10:42;;;;;;;14.43;10.07;;;0.40;99.90;;;;;;6276426;22;20024;-81
2023/11/27 00:13:30;;;;;;;21.73;10.68;;;0.40;99.90;;;;;;6274888;22;20077;-81
2023/11/27 00:16:17;;;;;;;19.67;10.15;;;0.40;99.90;;;;;;6253229;22;20102;-81
2023/11/27 00:19:09;;;;;;;15.95;10.40;;;0.40;99.90;;;;;;6276060;22;20027;-80
2023/11/27 00:21:57;;;;;;;10.75;7.88;;;0.30;99.90;;;;;;6278150;22;20030;-81
2023/11/27 00:24:45;;;;;;;17.60;10.43;;;0.20;99.90;;;;;;6279142;22;20428;-81
2023/11/27 00:27:32;;;;;;;19.90;10.00;;;0.10;99.90;;;;;;6256507;22;20399;-81
2023/11/27 00:30:19;;;;;;;17.67;10.93;;;0.20;99.90;;;;;;6272968;22;20043;-79
2023/11/27 00:33:07;;;;;;;19.35;9.13;;;0.20;99.90;;;;;;6276743;22;20031;-81
2023/11/27 00:35:57;;;;;;;18.40;9.55;;;0.20;99.90;;;;;;6275642;22;20023;-81
2023/11/27 00:38:49;;;;;;;14.77;9.18;;;0.30;99.90;;;;;;6276840;22;20434;-81
2023/11/27 00:41:39;;;;;;;14.52;8.77;;;0.30;99.90;;;;;;6273561;22;20019;-81
2023/11/27 00:44:28;;;;;;;17.52;9.10;;;0.30;99.90;;;;;;6275848;22;20448;-82
2023/11/27 00:47:17;;;;;;;13.48;8.98;;;0.40;99.90;;;;;;6272361;22;20024;-81
2023/11/27 00:50:08;;;;;;;12.82;8.93;;;0.30;99.90;;;;;;6254568;22;20024;-81
2023/11/27 00:52:55;;;;;;;15.18;9.05;;;0.30;99.90;;;;;;6252801;22;20038;-81
2023/11/27 00:55:42;;;;;;;13.82;10.02;;;0.30;99.90;;;;;;6276945;22;20496;-81
2023/11/27 00:58:30;;;;;;;14.13;9.32;;;0.40;99.90;;;;;;6275641;22;20019;-81
2023/11/27 01:01:17;;;;;;;15.40;9.25;;;0.40;99.90;;;;;;6274133;22;20024;-81
2023/11/27 01:04:04;;;;;;;13.10;8.75;;;0.40;99.90;;;;;;6274937;22;20121;-81
2023/11/27 01:06:52;;;;;;;15.98;9.45;;;0.40;99.90;;;;;;6251739;22;20031;-81
2023/11/27 01:09:41;;;;;;;16.42;9.73;;;0.40;99.90;;;;;;6254224;22;20406;-80
2023/11/27 01:12:29;;;;;;;23.00;10.20;;;0.40;99.90;;;;;;6256114;22;20034;-81
2023/11/27 01:15:16;;;;;;;20.10;10.55;;;0.30;99.90;;;;;;6255743;22;20098;-81
2023/11/27 01:18:04;;;;;;;17.08;10.40;;;0.30;99.90;;;;;;6275481;22;20095;-81
2023/11/27 01:20:51;;;;;;;15.13;10.00;;;0.30;99.90;;;;;;6275841;22;20056;-81
2023/11/27 01:23:39;;;;;;;20.30;9.88;;;0.30;99.90;;;;;;6276284;22;20059;-81
2023/11/27 01:26:27;;;;;;;17.35;9.85;;;0.30;99.90;;;;;;6274567;22;20024;-81
2023/11/27 01:29:14;;;;;;;14.63;9.57;;;0.30;99.90;;;;;;6275592;22;20323;-81
2023/11/27 01:32:07;;;;;;;13.82;9.13;;;0.30;99.90;;;;;;6256607;22;20027;-81
2023/11/27 01:34:54;;;;;;;14.82;9.38;;;0.30;99.90;;;;;;6274969;22;20031;-81
2023/11/27 01:37:42;;;;;;;17.63;9.23;;;0.30;99.90;;;;;;6276076;22;20028;-81
2023/11/27 01:40:32;;;;;;;13.05;8.98;;;0.30;99.90;;;;;;6273748;22;20457;-81
2023/11/27 01:43:20;;;;;;;18.85;9.30;;;0.30;99.90;;;;;;6252750;22;20077;-81
2023/11/27 01:46:39;;;;;;;13.38;8.95;;;0.40;99.90;;;;;;6277054;22;20398;-79
2023/11/27 01:49:28;;;;;;;12.60;7.93;;;0.50;99.90;;;;;;6275810;22;20649;-81
2023/11/27 01:52:17;;;;;;;15.77;9.43;;;0.50;99.90;;;;;;6275470;22;20032;-81
2023/11/27 01:55:07;;;;;;;13.20;8.40;;;0.50;99.90;;;;;;6272309;22;20411;-81
2023/11/27 01:57:56;;;;;;;14.02;7.82;;;0.50;99.90;;;;;;6273974;22;20110;-80
2023/11/27 02:00:46;;;;;;;14.43;8.30;;;0.50;99.90;;;;;;6273420;22;20124;-79
2023/11/27 02:03:34;;;;;;;12.65;7.35;;;0.60;99.90;;;;;;6274576;22;20030;-80
2023/11/27 02:06:21;;;;;;;14.70;7.53;;;0.60;99.90;;;;;;6254553;22;20027;-81
2023/11/27 02:09:09;;;;;;;12.98;7.47;;;0.60;99.90;;;;;;6275070;22;20032;-81
2023/11/27 02:11:59;;;;;;;10.60;6.82;;;0.60;99.90;;;;;;6273013;22;20031;-81
2023/11/27 02:14:46;;;;;;;11.88;7.15;;;0.60;99.90;;;;;;6273286;22;20314;-82
2023/11/27 02:17:36;;;;;;;13.57;8.07;;;0.60;99.90;;;;;;6275295;22;20039;-81
2023/11/27 02:20:24;;;;;;;16.17;8.20;;;0.60;99.90;;;;;;6276445;22;20279;-81
2023/11/27 02:23:15;;;;;;;13.25;7.35;;;0.60;99.90;;;;;;6275304;22;20030;-81
2023/11/27 02:26:03;;;;;;;13.50;7.32;;;0.60;99.90;;;;;;6273382;22;20103;-81
2023/11/27 02:28:50;;;;;;;9.57;6.55;;;0.60;99.90;;;;;;6276701;22;20267;-83
2023/11/27 02:31:40;;;;;;;10.98;5.65;;;0.60;99.90;;;;;;6275400;22;20028;-81
2023/11/27 02:34:27;;;;;;;10.73;6.50;;;0.70;99.90;;;;;;6251444;22;20109;-81
2023/11/27 02:37:15;;;;;;;12.15;6.28;;;0.70;99.90;;;;;;6275208;22;20051;-81
2023/11/27 02:40:02;;;;;;;8.98;5.63;;;0.70;99.90;;;;;;6274753;22;20413;-81
2023/11/27 02:42:50;;;;;;;12.10;5.90;;;0.70;99.90;;;;;;6278146;22;20028;-81
2023/11/27 02:45:37;;;;;;;10.13;6.00;;;0.70;99.90;;;;;;6274138;22;20043;-80
2023/11/27 02:48:25;;;;;;;7.18;4.82;;;0.70;99.90;;;;;;6275862;22;20034;-80
2023/11/27 02:51:13;;;;;;;10.02;5.10;;;0.70;99.90;;;;;;6274556;22;20081;-81
2023/11/27 02:54:05;;;;;;;7.88;5.15;;;0.80;99.90;;;;;;6274861;22;20047;-81
2023/11/27 02:56:53;;;;;;;8.37;4.93;;;0.70;99.90;;;;;;6276333;22;20058;-81
2023/11/27 02:59:40;;;;;;;6.93;5.03;;;0.70;99.90;;;;;;6276484;22;20019;-81
2023/11/27 03:02:30;;;;;;;7.78;4.55;;;0.70;99.90;;;;;;6277061;22;20035;-81
2023/11/27 03:05:17;;;;;;;8.02;4.00;;;0.70;99.90;;;;;;6274245;22;20333;-80
2023/11/27 03:08:05;;;;;;;8.25;4.50;;;0.80;99.90;;;;;;6275111;22;20035;-81
2023/11/27 03:10:54;;;;;;;6.00;4.30;;;0.80;99.90;;;;;;6276808;22;20020;-81
2023/11/27 03:13:41;;;;;;;4.63;4.00;;;0.90;99.90;;;;;;6275607;22;20055;-81
2023/11/27 03:16:31;;;;;;;7.78;4.10;;;0.90;99.90;;;;;;6253236;22;20680;-81
2023/11/27 03:19:21;;;;;;;5.38;3.85;;;0.90;99.90;;;;;;6274729;22;20035;-81
2023/11/27 03:22:11;;;;;;;;;;;1.00;99.90;;;;;;6286753;22;20019;-80
2023/11/27 03:24:59;;;;;;;6.07;3.70;;;1.00;99.90;;;;;;6295917;22;19919;-78
2023/11/27 03:27:48;;;;;;;7.18;4.55;;;1.00;99.90;;;;;;6304256;22;20023;-80
2023/11/27 03:30:36;;;;;;;7.90;3.72;;;1.00;99.90;;;;;;6288029;22;20027;-82
2023/11/27 03:33:23;;;;;;;9.00;4.85;;;1.00;99.90;;;;;;6286193;22;20075;-82
2023/11/27 03:36:11;;;;;;;17.23;7.57;;;1.00;99.90;;;;;;6279474;22;20024;-81
2023/11/27 03:38:58;;;;;;;8.73;4.53;;;1.00;99.90;;;;;;6277541;22;20024;-81
2023/11/27 03:41:45;;;;;;;6.78;4.10;;;1.00;99.90;;;;;;6275539;22;20030;-81
2023/11/27 03:44:34;;;;;;;4.75;3.95;;;0.90;99.90;;;;;;6276653;22;20302;-81
2023/11/27 03:47:22;;;;;;;5.60;4.10;;;0.90;99.90;;;;;;6275361;22;20024;-81
2023/11/27 03:50:10;;;;;;;7.40;4.07;;;0.90;99.90;;;;;;6276633;22;20295;-81
2023/11/27 03:53:00;;;;;;;6.55;3.90;;;0.80;99.90;;;;;;6274736;22;20067;-82
2023/11/27 03:55:47;;;;;;;6.63;4.20;;;0.80;99.90;;;;;;6272528;22;20027;-82
2023/11/27 03:58:35;;;;;;;12.98;4.38;;;0.80;99.90;;;;;;6273454;22;20034;-81
2023/11/27 04:01:22;;;;;;;6.18;3.75;;;0.80;99.90;;;;;;6276567;22;20023;-81
2023/11/27 04:04:11;;;;;;;8.48;4.20;;;0.80;99.90;;;;;;6274823;22;20383;-81
2023/11/27 04:07:00;;;;;;;5.20;3.70;;;0.80;99.90;;;;;;6274392;22;20031;-81
2023/11/27 04:09:47;;;;;;;5.90;3.97;;;0.70;99.90;;;;;;6274012;22;20032;-81
2023/11/27 04:12:37;;;;;;;6.13;3.55;;;0.70;99.90;;;;;;6278652;22;20027;-79
2023/11/27 04:15:24;;;;;;;5.88;3.80;;;0.70;99.90;;;;;;6278395;22;20107;-81
2023/11/27 04:18:12;;;;;;;6.13;4.00;;;0.70;99.90;;;;;;6277342;22;20120;-81
2023/11/27 04:21:02;;;;;;;5.03;3.67;;;0.70;99.90;;;;;;6274170;22;20112;-81
2023/11/27 04:23:49;;;;;;;8.30;4.30;;;0.70;99.90;;;;;;6277159;22;20020;-81
2023/11/27 04:26:39;;;;;;;11.65;4.00;;;0.70;99.90;;;;;;6274565;22;20024;-81
2023/11/27 04:29:26;;;;;;;6.82;3.40;;;0.60;99.90;;;;;;6277654;22;20106;-82
2023/11/27 04:32:16;;;;;;;8.23;4.50;;;0.70;99.90;;;;;;6279313;22;20040;-82
2023/11/27 04:35:06;;;;;;;8.48;4.50;;;0.60;99.90;;;;;;6273977;22;20157;-81
2023/11/27 04:37:54;;;;;;;8.13;4.43;;;0.60;99.90;;;;;;6276147;22;20078;-81
2023/11/27 04:40:41;;;;;;;11.02;4.80;;;0.60;98.00;;;;;;6274553;22;20023;-81
2023/11/27 04:43:29;;;;;;;8.65;4.65;;;0.60;85.40;;;;;;6273709;22;20038;-81
2023/11/27 04:46:18;;;;;;;8.88;4.63;;;0.60;72.00;;;;;;6273413;22;20034;-81
2023/11/27 04:49:06;;;;;;;7.80;4.28;;;0.60;58.20;;;;;;6273804;22;20570;-81
2023/11/27 04:51:54;;;;;;;13.68;5.18;;;0.60;46.80;;;;;;6276138;22;20077;-78
2023/11/27 04:54:41;;;;;;;10.73;4.95;;;0.60;35.10;;;;;;6278545;22;20031;-81
2023/11/27 04:57:31;;;;;;;9.50;4.40;;;0.60;39.30;;;;;;6274606;22;20665;-81
2023/11/27 05:00:19;;;;;;;5.78;3.55;;;0.50;40.40;;;;;;6273480;22;20032;-79
2023/11/27 05:03:09;;;;;;;5.75;3.78;;;0.50;52.70;;;;;;6278166;22;20407;-81
2023/11/27 05:06:01;;;;;;;6.72;3.95;;;0.50;71.80;;;;;;6276161;22;20038;-82
2023/11/27 05:08:51;;;;;;;5.47;3.40;;;0.50;84.30;;;;;;6274564;22;20038;-82
2023/11/27 05:11:39;;;;;;;6.40;3.38;;;0.40;84.00;;;;;;6273036;22;20036;-82
2023/11/27 05:14:28;;;;;;;7.15;4.15;;;0.40;99.70;;;;;;6273337;22;20030;-82
2023/11/27 05:17:15;;;;;;;10.38;4.10;;;0.50;99.90;;;;;;6275548;22;20425;-82
2023/11/27 05:20:10;;;;;;;5.43;4.13;;;0.40;90.50;;;;;;6274992;22;20020;-82
2023/11/27 05:23:02;;;;;;;6.68;4.72;;;0.40;92.40;;;;;;6274838;22;20079;-81
2023/11/27 05:25:49;;;;;;;12.32;4.90;;;0.40;96.00;;;;;;6274852;22;20354;-81
2023/11/27 05:28:38;;;;;;;7.05;4.65;;;0.40;93.50;;;;;;6272837;22;20024;-81
2023/11/27 05:31:27;;;;;;;8.18;4.97;;;0.40;99.90;;;;;;6274055;22;20028;-81
2023/11/27 05:34:17;;;;;;;7.15;4.75;;;0.40;99.70;;;;;;6276077;22;20028;-80
2023/11/27 05:37:08;;;;;;;9.43;5.05;;;0.40;99.90;;;;;;6275269;22;20398;-81
2023/11/27 05:39:56;;;;;;;8.13;4.90;;;0.40;99.90;;;;;;6274667;22;20023;-81
2023/11/27 05:42:45;;;;;;;8.32;5.43;;;0.40;99.90;;;;;;6274737;22;20031;-78
2023/11/27 05:45:35;;;;;;;8.77;5.60;;;0.50;99.90;;;;;;6275937;22;20024;-79
2023/11/27 05:48:22;;;;;;;8.60;5.35;;;0.50;98.30;;;;;;6275589;22;20030;-79
2023/11/27 05:51:09;;;;;;;6.40;5.10;;;0.50;91.20;;;;;;6270495;22;20150;-80
2023/11/27 05:54:00;;;;;;;8.90;5.50;;;0.60;90.60;;;;;;6272079;22;20286;-79
2023/11/27 05:56:48;;;;;;;9.25;5.93;;;0.60;93.20;;;;;;6275535;22;20031;-82
2023/11/27 05:59:36;;;;;;;11.25;6.65;;;0.60;90.40;;;;;;6276233;22;20119;-81
2023/11/27 06:02:28;;;;;;;15.45;6.85;;;0.60;92.70;;;;;;6273699;22;20091;-82
2023/11/27 06:05:17;;;;;;;7.90;5.75;;;0.60;95.00;;;;;;6274796;22;20073;-81
2023/11/27 06:08:05;;;;;;;11.35;6.28;;;0.60;99.50;;;;;;6273649;22;20081;-80
2023/11/27 06:10:52;;;;;;;10.98;5.78;;;0.60;97.30;;;;;;6273041;22;20039;-82
2023/11/27 06:13:41;;;;;;;12.70;7.03;;;0.60;99.90;;;;;;6275666;22;20023;-81
2023/11/27 06:16:29;;;;;;;12.85;7.70;;;0.70;99.90;;;;;;6276166;22;20426;-81
2023/11/27 06:19:18;;;;;;;15.32;7.47;;;0.70;99.90;;;;;;6273089;22;20081;-80
2023/11/27 06:22:05;;;;;;;17.20;8.02;;;0.80;99.90;;;;;;6274625;22;20031;-79
2023/11/27 06:24:53;;;;;;;9.88;6.32;;;0.70;99.90;;;;;;6275431;22;20402;-81
2023/11/27 06:27:43;;;;;;;17.38;7.57;;;0.80;99.90;;;;;;6279385;22;20094;-82
2023/11/27 06:30:31;;;;;;;11.98;7.50;;;0.80;99.90;;;;;;6276085;22;20019;-82
2023/11/27 06:33:20;;;;;;;14.10;7.95;;;0.80;98.50;;;;;;6280896;22;20031;-80
2023/11/27 06:36:10;;;;;;;15.57;7.85;;;0.80;91.50;;;;;;6279829;22;20024;-81
2023/11/27 06:38:58;;;;;;;20.58;9.95;;;0.80;95.40;;;;;;6281421;22;20032;-81
2023/11/27 06:41:45;;;;;;;19.88;10.52;;;0.80;98.50;;;;;;6275653;22;20023;-82
2023/11/27 06:44:32;;;;;;;21.40;10.35;;;0.80;99.90;;;;;;6273550;22;20109;-82
2023/11/27 06:47:20;;;;;;;18.98;9.57;;;0.80;99.40;;;;;;6273991;22;20066;-82
2023/11/27 06:50:07;;;;;;;21.73;10.93;;;0.80;99.80;;;;;;6278790;22;20052;-83
2023/11/27 06:52:56;;;;;;;19.52;9.05;;;0.80;96.80;;;;;;6277328;22;20094;-84
2023/11/27 06:55:46;;;;;;;13.20;8.07;;;0.90;99.90;;;;;;6271511;22;20024;-82
2023/11/27 06:58:34;;;;;;;14.32;8.35;;;0.80;99.90;;;;;;6253658;22;20027;-82
2023/11/27 07:01:25;;;;;;;14.27;8.35;;;0.80;99.90;;;;;;6253676;22;20028;-81
2023/11/27 07:04:15;;;;;;;13.82;7.47;;;0.90;99.90;;;;;;6276819;22;20023;-81
2023/11/27 07:07:03;;;;;;;17.70;8.15;;;0.90;99.90;;;;;;6277094;22;20126;-81
2023/11/27 07:09:56;;;;;;;16.60;9.48;;;0.90;99.90;;;;;;6274912;22;20027;-82
2023/11/27 07:12:46;;;;;;;16.30;8.52;;;0.90;99.90;;;;;;6281514;22;20028;-82
2023/11/27 07:15:33;;;;;;;16.00;8.10;;;1.00;99.90;;;;;;6274468;22;20055;-84
2023/11/27 07:18:20;;;;;;;14.82;8.18;;;1.00;96.00;;;;;;6277177;22;20030;-83
2023/11/27 07:21:14;;;;;;;15.90;8.15;;;1.00;94.40;;;;;;6256608;22;20023;-82
2023/11/27 07:24:01;;;;;;;13.25;7.72;;;1.00;93.80;;;;;;6275685;22;20089;-82
2023/11/27 07:26:49;;;;;;;15.13;7.40;;;1.00;97.00;;;;;;6275021;22;20027;-81
2023/11/27 07:29:36;;;;;;;21.05;8.48;;;1.00;90.10;;;;;;6253925;22;20035;-82
2023/11/27 07:32:24;;;;;;;17.00;7.47;;;1.00;80.10;;;;;;6275958;22;20019;-83
2023/11/27 07:35:13;;;;;;;14.27;7.93;;;1.00;59.50;;;;;;6274811;22;20414;-83
2023/11/27 07:38:07;;;;;;;20.08;8.73;;;1.00;59.40;;;;;;6251749;22;20024;-81
2023/11/27 07:41:10;;;;;;;15.90;8.43;;;1.00;61.10;;;;;;6255237;22;20019;-83
2023/11/27 07:43:57;;;;;;;;;;;1.10;53.30;;;;;;6275679;22;20314;-82
2023/11/27 07:46:47;;;;;;;17.77;7.85;;;1.10;54.50;;;;;;6274153;22;19915;-83
2023/11/27 07:49:40;;;;;;;16.45;8.85;;;1.10;39.40;;;;;;6273781;22;20035;-83
2023/11/27 07:52:28;;;;;;;13.00;8.27;;;1.10;33.30;;;;;;6275330;22;20019;-81
2023/11/27 07:55:15;;;;;;;12.75;8.68;;;1.20;21.70;;;;;;6276369;22;20020;-83
2023/11/27 07:58:03;;;;;;;16.00;7.63;;;1.10;5.90;;;;;;6276667;22;20160;-80
2023/11/27 08:00:51;;;;;;;11.73;7.50;;;1.20;1.00;;;;;;6278273;22;20050;-82
2023/11/27 08:03:39;;;;;;;16.40;7.50;;;1.20;1.00;;;;;;6278875;22;20287;-82
2023/11/27 08:06:29;;;;;;;16.90;7.68;;;1.30;1.00;;;;;;6275853;22;20123;-82
2023/11/27 08:09:19;;;;;;;16.80;7.57;;;1.30;1.00;;;;;;6273985;22;20439;-82
2023/11/27 08:12:12;;;;;;;16.83;7.60;;;1.30;1.00;;;;;;6276183;22;20058;-81
2023/11/27 08:15:04;;;;;;;13.40;7.55;;;1.40;1.00;;;;;;6275790;22;20452;-81
2023/11/27 08:17:55;;;;;;;15.63;8.02;;;1.40;1.00;;;;;;6275814;22;20081;-82
2023/11/27 08:20:43;;;;;;;16.20;8.70;;;1.40;99.90;;;;;;6274400;22;20020;-83
2023/11/27 08:23:30;;;;;;;17.17;7.95;;;1.50;99.90;;;;;;6251706;22;20035;-81
2023/11/27 08:26:19;;;;;;;18.08;8.32;;;1.40;99.90;;;;;;6274152;22;20024;-81
2023/11/27 08:29:10;;;;;;;16.95;8.10;;;1.50;99.90;;;;;;6276185;22;20023;-82
2023/11/27 08:31:58;;;;;;;14.80;7.65;;;1.50;99.90;;;;;;6274175;22;20034;-81
2023/11/27 08:34:49;;;;;;;13.88;7.15;;;1.50;99.90;;;;;;6276327;22;20107;-83
2023/11/27 08:37:39;;;;;;;12.95;8.30;;;1.50;99.90;;;;;;6277006;22;20457;-84
2023/11/27 08:40:27;;;;;;;17.75;8.50;;;1.50;99.90;;;;;;6277796;22;20034;-83
2023/11/27 08:43:14;;;;;;;13.35;7.75;;;1.60;99.90;;;;;;6279350;22;20016;-83
2023/11/27 08:46:02;;;;;;;12.30;7.60;;;1.60;99.90;;;;;;6287341;22;20015;-79
2023/11/27 08:48:50;;;;;;;12.85;7.85;;;1.60;25.40;;;;;;6290277;22;20090;-83
2023/11/27 08:51:42;;;;;;;13.38;6.70;;;1.70;1.00;;;;;;6289200;22;20023;-82
2023/11/27 08:54:32;;;;;;;10.63;7.25;;;1.70;99.90;;;;;;6285166;22;20023;-81
2023/11/27 08:57:20;;;;;;;13.27;6.65;;;1.80;99.90;;;;;;6263989;22;20020;-82
2023/11/27 09:00:11;;;;;;;13.75;7.07;;;1.80;99.90;;;;;;6291368;22;20023;-82
2023/11/27 09:03:00;;;;;;;12.07;7.47;;;1.80;99.90;;;;;;6267612;22;20469;-83
2023/11/27 09:05:49;;;;;;;13.50;7.53;;;1.90;99.90;;;;;;6288447;22;20091;-83
2023/11/27 09:08:40;;;;;;;13.10;7.22;;;1.90;99.90;;;;;;6287079;22;20031;-85
2023/11/27 09:11:33;;;;;;;10.52;6.75;;;2.00;99.90;;;;;;6280347;22;20023;-84
2023/11/27 09:14:24;;;;;;;11.38;6.45;;;2.10;99.90;;;;;;6277774;22;20031;-84
2023/11/27 09:17:13;;;;;;;13.45;6.38;;;2.10;99.90;;;;;;6275963;22;20062;-84
2023/11/27 09:20:04;;;;;;;10.90;6.10;;;2.20;99.90;;;;;;6281145;22;20043;-82
2023/11/27 09:22:52;;;;;;;11.73;6.57;;;2.30;99.90;;;;;;6284106;22;20034;-83
2023/11/27 09:25:40;;;;;;;14.55;5.65;;;2.50;99.90;;;;;;6282424;22;20023;-84
2023/11/27 09:28:27;;;;;;;10.05;5.70;;;2.50;99.90;;;;;;6277915;22;20076;-84
2023/11/27 09:31:19;;;;;;;12.18;6.10;;;2.60;99.90;;;;;;6252099;22;20090;-85
2023/11/27 09:34:07;;;;;;;6.50;4.83;;;2.60;99.90;;;;;;6255800;22;20290;-80
2023/11/27 09:36:57;;;;;;;9.05;5.53;;;2.60;99.90;;;;;;6255652;22;20292;-84
2023/11/27 09:39:53;;;;;;;9.10;5.85;;;2.60;99.90;;;;;;6278154;22;20695;-84
2023/11/27 09:42:41;;;;;;;9.27;5.55;;;2.60;99.90;;;;;;6276579;22;20276;-83
2023/11/27 09:45:36;;;;;;;10.90;5.55;;;2.50;99.90;;;;;;6275872;22;20373;-81
2023/11/27 09:48:24;;;;;;;10.82;5.72;;;2.50;99.90;;;;;;6275331;22;20414;-84
2023/11/27 09:51:21;;;;;;;9.88;5.50;;;2.40;99.90;;;;;;6277143;22;20490;-84
2023/11/27 09:54:12;;;;;;;11.48;6.38;;;2.40;99.90;;;;;;6276341;22;20306;-84
2023/11/27 09:56:59;;;;;;;12.70;6.28;;;2.40;99.90;;;;;;6274402;22;20028;-85
2023/11/27 09:59:47;;;;;;;10.10;5.57;;;2.40;99.90;;;;;;6275185;22;20023;-84
2023/11/27 10:02:35;;;;;;;9.18;6.03;;;2.50;99.90;;;;;;6255007;22;20031;-84
2023/11/27 10:05:23;;;;;;;9.50;6.70;;;2.50;99.90;;;;;;6251300;22;20023;-84
2023/11/27 10:08:11;;;;;;;24.98;11.52;;;2.60;99.90;;;;;;6274468;22;20054;-83
2023/11/27 10:10:59;;;;;;;13.25;7.63;;;2.60;99.90;;;;;;6276022;22;20095;-83
2023/11/27 10:13:46;;;;;;;12.10;7.35;;;2.70;99.90;;;;;;6273143;22;20110;-84
2023/11/27 10:16:58;;;;;;;10.82;6.47;;;2.70;99.90;;;;;;6272909;22;20038;-83
2023/11/27 10:19:46;;;;;;;12.38;6.82;;;2.70;99.90;;;;;;6273273;22;20035;-83
2023/11/27 10:22:35;;;;;;;10.50;7.00;;;2.70;99.90;;;;;;6275485;22;20051;-83
2023/11/27 10:25:23;;;;;;;9.27;6.35;;;2.80;99.90;;;;;;6272676;22;20031;-83
2023/11/27 10:28:14;;;;;;;9.10;6.78;;;2.80;99.90;;;;;;6274139;22;20023;-83
2023/11/27 10:31:06;;;;;;;12.00;7.20;;;2.80;99.90;;;;;;6274607;22;20402;-81
2023/11/27 10:33:56;;;;;;;11.63;6.85;;;3.10;99.90;;;;;;6274613;22;20024;-85
2023/11/27 10:36:56;;;;;;;10.45;6.18;;;3.20;99.90;;;;;;6274410;22;20039;-85
2023/11/27 10:39:48;;;;;;;8.85;6.13;;;3.30;99.90;;;;;;6274819;22;20027;-82
2023/11/27 10:42:37;;;;;;;10.98;6.40;;;3.30;99.90;;;;;;6272902;22;20019;-84
2023/11/27 10:45:35;;;;;;;8.70;5.85;;;3.50;99.90;;;;;;6275842;22;20024;-85
2023/11/27 10:48:32;;;;;;;6.45;5.10;;;3.40;99.90;;;;;;6253125;22;20317;-85
2023/11/27 10:51:32;;;;;;;9.18;5.85;;;3.50;99.90;;;;;;6275637;22;20384;-85
2023/11/27 10:54:27;;;;;;;10.30;5.60;;;3.50;99.90;;;;;;6260671;22;20038;-84
2023/11/27 10:57:19;;;;;;;9.27;5.57;;;3.70;99.90;;;;;;6275138;22;20038;-84
2023/11/27 11:00:07;;;;;;;7.07;4.95;;;3.90;99.90;;;;;;6254434;22;20024;-84
2023/11/27 11:03:21;;;;;;;8.73;5.32;;;3.90;99.90;;;;;;6272265;22;20023;-85
2023/11/27 11:06:11;;;;;;;9.20;4.50;;;4.00;99.90;;;;;;6278271;22;20020;-83
2023/11/27 11:08:59;;;;;;;9.82;4.70;;;4.20;99.90;;;;;;6276386;22;20023;-84
2023/11/27 11:11:49;;;;;;;6.40;3.95;;;4.10;1.00;;;;;;6275965;22;20323;-84
2023/11/27 11:14:39;;;;;;;5.70;4.10;;;4.00;1.00;;;;;;6253722;22;20119;-84
2023/11/27 11:17:59;;;;;;;7.15;4.03;;;4.00;1.00;;;;;;6277099;22;20113;-85
2023/11/27 11:21:06;;;;;;;6.20;3.40;;;4.00;1.00;;;;;;6277533;22;20034;-84
2023/11/27 11:24:08;;;;;;;5.63;3.88;;;4.00;1.00;;;;;;6276411;22;20275;-83
2023/11/27 11:26:56;;;;;;;;;;;3.90;99.90;;;;;;6278194;22;20034;-85
2023/11/27 11:29:44;;;;;;;5.18;3.30;;;3.80;1.00;;;;;;6275677;22;19915;-83
2023/11/27 11:32:36;;;;;;;3.67;3.00;;;3.90;99.90;;;;;;6275238;22;20448;-81
2023/11/27 11:35:30;;;;;;;6.72;3.10;;;3.80;99.90;;;;;;6274039;22;20027;-82
2023/11/27 11:38:21;;;;;;;4.90;3.10;;;3.80;99.90;;;;;;6255642;22;20027;-83
2023/11/27 11:41:12;;;;;;;6.50;3.08;;;3.70;99.90;;;;;;6254469;22;20426;-84
2023/11/27 11:44:00;;;;;;;4.82;2.97;;;3.70;99.90;;;;;;6275800;22;20417;-83
2023/11/27 11:46:53;;;;;;;4.20;2.72;;;3.70;99.90;;;;;;6254327;22;20020;-83
2023/11/27 11:49:44;;;;;;;4.35;3.03;;;3.70;99.90;;;;;;6273669;22;20041;-82
2023/11/27 11:52:36;;;;;;;4.53;3.00;;;3.70;99.90;;;;;;6274566;22;20099;-84
2023/11/27 11:55:32;;;;;;;5.20;2.80;;;3.70;99.90;;;;;;6276737;22;20036;-83
2023/11/27 11:58:20;;;;;;;7.68;2.85;;;3.70;99.90;;;;;;6254893;22;20039;-83
2023/11/27 12:01:08;;;;;;;5.57;2.90;;;3.70;99.90;;;;;;6274957;22;20651;-83
2023/11/27 12:03:59;;;;;;;5.47;3.08;;;3.70;99.90;;;;;;6277204;22;20342;-84
2023/11/27 12:06:48;;;;;;;3.20;2.55;;;3.60;99.90;;;;;;6277078;22;20624;-82
2023/11/27 12:09:41;;;;;;;10.30;3.20;;;3.60;99.90;;;;;;6275439;22;20172;-80
2023/11/27 12:12:32;;;;;;;6.15;2.80;;;3.60;99.90;;;;;;6255378;22;20035;-83
2023/11/27 12:15:24;;;;;;;4.60;2.30;;;3.60;99.90;;;;;;6277906;22;20038;-83
2023/11/27 12:18:12;;;;;;;8.15;3.05;;;3.60;99.90;;;;;;6254396;22;20028;-82
2023/11/27 12:21:05;;;;;;;6.15;2.67;;;3.60;99.90;;;;;;6275452;22;20031;-82
2023/11/27 12:23:55;;;;;;;5.15;2.80;;;3.60;99.90;;;;;;6273965;22;20073;-82
2023/11/27 12:26:53;;;;;;;6.63;2.67;;;3.60;99.90;;;;;;6274883;22;20020;-83
2023/11/27 12:29:48;;;;;;;4.70;2.60;;;3.50;99.90;;;;;;6274669;22;20028;-81
2023/11/27 12:32:40;;;;;;;4.72;2.55;;;3.50;99.90;;;;;;6252103;22;20023;-82
2023/11/27 12:35:27;;;;;;;6.13;2.92;;;3.50;99.90;;;;;;6232765;22;20023;-83
2023/11/27 12:38:18;;;;;;;8.43;3.22;;;3.50;99.90;;;;;;6282998;22;20030;-84
2023/11/27 12:41:13;;;;;;;8.57;3.40;;;3.50;99.90;;;;;;6284686;22;20030;-81
2023/11/27 12:44:13;;;;;;;6.28;2.55;;;3.40;99.90;;;;;;6280515;22;20020;-80
2023/11/27 12:47:07;;;;;;;4.03;2.58;;;3.50;99.90;;;;;;6279145;22;20095;-83
2023/11/27 12:49:57;;;;;;;4.03;2.63;;;3.40;99.90;;;;;;6274162;22;20095;-83
2023/11/27 12:52:46;;;;;;;6.30;2.42;;;3.40;99.90;;;;;;6274963;22;20027;-82
2023/11/27 12:55:37;;;;;;;3.05;1.85;;;3.30;99.90;;;;;;6272584;22;20449;-81
2023/11/27 12:58:34;;;;;;;4.38;2.30;;;3.30;99.90;;;;;;6276154;22;20437;-82
2023/11/27 13:01:25;;;;;;;4.32;2.17;;;3.30;99.90;;;;;;6272930;22;20034;-83
2023/11/27 13:04:14;;;;;;;3.00;1.73;;;3.30;99.90;;;;;;6250192;22;20027;-81
2023/11/27 13:07:05;;;;;;;5.40;1.90;;;3.30;99.90;;;;;;6253563;22;20697;-82
2023/11/27 13:09:55;;;;;;;6.10;1.63;;;3.30;99.90;;;;;;6273528;22;20406;-79
2023/11/27 13:12:48;;;;;;;1.83;1.45;;;3.30;99.90;;;;;;6277397;22;20038;-80
2023/11/27 13:15:38;;;;;;;2.63;1.50;;;3.30;99.90;;;;;;6277250;22;20038;-82
2023/11/27 13:18:31;;;;;;;1.38;1.27;;;3.30;99.90;;;;;;6274719;22;20024;-83
2023/11/27 13:21:21;;;;;;;3.60;1.85;;;3.20;99.90;;;;;;6274323;22;20027;-83
2023/11/27 13:24:13;;;;;;;2.47;1.45;;;3.20;99.90;;;;;;6275332;22;20019;-81
2023/11/27 13:27:07;;;;;;;2.53;1.40;;;3.10;99.90;;;;;;6278798;22;20051;-81
2023/11/27 13:29:57;;;;;;;2.13;1.58;;;3.10;99.90;;;;;;6274580;22;20027;-82
2023/11/27 13:32:49;;;;;;;3.08;1.60;;;3.10;99.90;;;;;;6276258;22;20027;-81
2023/11/27 13:35:44;;;;;;;2.30;1.30;;;3.10;99.90;;;;;;6272654;22;20024;-81
2023/11/27 13:38:32;;;;;;;2.78;1.60;;;3.00;1.00;;;;;;6274466;22;20106;-81
2023/11/27 13:41:22;;;;;;;3.15;1.60;;;3.00;1.00;;;;;;6230382;22;20355;-80
2023/11/27 13:44:17;;;;;;;3.13;2.08;;;3.00;1.00;;;;;;6273927;22;20094;-82
2023/11/27 13:47:09;;;;;;;3.80;1.40;;;3.00;1.00;;;;;;6276279;22;20030;-81
2023/11/27 13:49:57;;;;;;;3.00;1.83;;;3.00;1.00;;;;;;6253906;22;20033;-82
2023/11/27 13:52:46;;;;;;;3.75;1.65;;;3.00;1.00;;;;;;6277550;22;20361;-82
2023/11/27 13:55:37;;;;;;;3.63;1.92;;;3.00;1.00;;;;;;6282752;22;20435;-82
2023/11/27 13:58:27;;;;;;;6.03;2.10;;;3.00;1.00;;;;;;6259509;22;20089;-80
2023/11/27 14:01:23;;;;;;;2.03;1.70;;;3.00;20.40;;;;;;6280475;22;20019;-80
2023/11/27 14:04:29;;;;;;;3.40;1.73;;;3.00;91.60;;;;;;6283282;22;20075;-82
2023/11/27 14:07:20;;;;;;;2.70;1.73;;;2.90;99.90;;;;;;6275547;22;20502;-81
2023/11/27 14:10:21;;;;;;;4.55;2.00;;;3.00;99.90;;;;;;6273767;22;20054;-80
2023/11/27 14:13:15;;;;;;;3.15;1.60;;;3.00;99.90;;;;;;6273450;22;20034;-78
2023/11/27 14:16:03;;;;;;;;;;;3.00;99.90;;;;;;6277807;22;20039;-78
2023/11/27 14:18:51;;;;;;;2.22;1.80;;;2.90;99.90;;;;;;6274899;22;19919;-82
2023/11/27 14:27:41;;;;;;;2.75;1.60;;;2.90;1.00;;;;;;6274357;22;20023;-80
2023/11/27 14:30:33;;;;;;;3.38;2.03;;;2.80;56.70;;;;;;6252731;22;20015;-82
2023/11/27 14:33:23;;;;;;;4.65;2.08;;;2.80;99.90;;;;;;6275154;22;20093;-82
2023/11/27 14:36:14;;;;;;;2.78;1.88;;;2.80;99.90;;;;;;6274987;22;20034;-83
2023/11/27 14:39:08;;;;;;;3.67;1.70;;;2.70;1.00;;;;;;6272210;22;20042;-82
2023/11/27 14:41:58;;;;;;;4.18;1.80;;;2.60;99.90;;;;;;6250292;22;20266;-82
2023/11/27 14:44:46;;;;;;;2.67;2.15;;;2.60;76.80;;;;;;6274536;22;20023;-83
2023/11/27 14:47:35;;;;;;;5.40;2.55;;;2.50;1.00;;;;;;6271181;22;20019;-83
2023/11/27 14:50:28;;;;;;;2.33;2.10;;;2.50;99.90;;;;;;6250242;22;20024;-82
2023/11/27 14:53:15;;;;;;;6.45;2.53;;;2.40;99.90;;;;;;6275430;22;20028;-83
2023/11/27 14:56:09;;;;;;;4.35;2.10;;;2.40;1.00;;;;;;6275710;22;20584;-83
2023/11/27 14:58:57;;;;;;;3.60;2.53;;;2.40;1.00;;;;;;6276757;22;20330;-82